createdAt,value
2022-08-16T00:01:02.060Z,6.33
2022-08-16T00:03:37.850Z,6.47
2022-08-16T00:06:10.901Z,6.37
2022-08-16T00:08:45.742Z,6.05
2022-08-16T00:11:18.983Z,5.33
2022-08-16T00:13:55.511Z,5.42
2022-08-16T00:17:01.067Z,5.25
2022-08-16T00:19:08.101Z,5.33
2022-08-16T00:21:41.550Z,4.83
2022-08-16T00:24:31.381Z,4.67
2022-08-16T00:26:51.456Z,5.10
2022-08-16T00:29:24.607Z,4.53
2022-08-16T00:32:01.321Z,4.50
2022-08-16T00:34:43.543Z,4.37
2022-08-16T00:37:07.310Z,4.47
2022-08-16T00:39:40.189Z,4.55
2022-08-16T00:42:13.510Z,4.87
2022-08-16T00:44:50.330Z,5.33
2022-08-16T00:47:26.799Z,4.85
2022-08-16T00:50:01.298Z,4.55
2022-08-16T00:52:34.235Z,4.10
2022-08-16T00:55:09.803Z,4.62
2022-08-16T00:57:58.560Z,5.05
2022-08-16T01:00:19.876Z,4.75
2022-08-16T01:02:53.716Z,4.95
2022-08-16T01:05:27.614Z,6.30
2022-08-16T01:08:00.845Z,5.70
2022-08-16T01:10:35.871Z,5.42
2022-08-16T01:13:15.242Z,5.35
2022-08-16T01:16:10.258Z,5.05
2022-08-16T01:18:48.183Z,5.65
2022-08-16T01:21:33.649Z,5.10
2022-08-16T01:24:53.722Z,5.33
2022-08-16T01:27:20.117Z,5.40
2022-08-16T01:30:20.172Z,5.30
2022-08-16T01:32:43.964Z,6.10
2022-08-16T01:35:25.249Z,7.10
2022-08-16T01:38:03.595Z,6.55
2022-08-16T01:40:38.018Z,7.30
2022-08-16T01:43:11.321Z,7.00
2022-08-16T01:45:46.153Z,7.45
2022-08-16T01:48:20.651Z,7.65
2022-08-16T01:51:09.488Z,7.75
2022-08-16T01:53:31.439Z,7.67
2022-08-16T01:56:07.570Z,8.33
2022-08-16T01:58:47.910Z,8.58
2022-08-16T02:01:17.126Z,9.33
2022-08-16T02:03:51.943Z,9.70
2022-08-16T02:06:34.364Z,10.35
2022-08-16T02:09:01.143Z,9.05
2022-08-16T02:11:47.653Z,10.30
2022-08-16T02:14:18.547Z,10.10
2022-08-16T02:16:44.999Z,10.13
2022-08-16T02:19:20.214Z,9.48
2022-08-16T02:22:08.584Z,10.10
2022-08-16T02:24:32.535Z,9.50
2022-08-16T02:27:05.970Z,8.73
2022-08-16T02:29:41.372Z,9.20
2022-08-16T02:32:50.234Z,8.40
2022-08-16T02:34:52.041Z,8.23
2022-08-16T02:37:45.702Z,8.38
2022-08-16T02:40:01.479Z,9.35
2022-08-16T02:42:36.032Z,8.83
2022-08-16T02:45:11.267Z,8.93
2022-08-16T02:48:00.214Z,8.10
2022-08-16T02:50:54.919Z,7.90
2022-08-16T02:52:55.077Z,8.05
2022-08-16T02:55:40.698Z,12.15
2022-08-16T02:58:03.449Z,9.23
2022-08-16T03:00:38.814Z,8.63
2022-08-16T03:03:17.605Z,8.20
2022-08-16T03:05:49.770Z,8.98
2022-08-16T03:08:50.589Z,9.18
2022-08-16T03:10:59.457Z,9.60
2022-08-16T03:13:40.299Z,10.05
2022-08-16T03:16:33.089Z,16.17
2022-08-16T03:18:43.612Z,10.65
2022-08-16T03:21:18.542Z,9.30
2022-08-16T03:23:51.746Z,8.68
2022-08-16T03:26:24.854Z,13.53
2022-08-16T03:28:57.899Z,10.08
2022-08-16T03:31:34.882Z,8.00
2022-08-16T03:34:05.553Z,7.80
2022-08-16T03:36:38.595Z,9.03
2022-08-16T03:39:14.891Z,7.75
2022-08-16T03:41:50.912Z,8.23
2022-08-16T03:44:44.428Z,9.90
2022-08-16T03:46:58.246Z,9.35
2022-08-16T03:49:36.784Z,8.45
2022-08-16T03:52:08.490Z,8.30
2022-08-16T03:54:52.954Z,8.63
2022-08-16T03:57:17.055Z,8.73
2022-08-16T03:59:50.992Z,8.55
2022-08-16T04:02:31.631Z,9.03
2022-08-16T04:05:00.723Z,7.90
2022-08-16T04:07:35.798Z,8.80
2022-08-16T04:10:36.097Z,8.13
2022-08-16T04:12:54.377Z,8.18
2022-08-16T04:15:22.711Z,8.08
2022-08-16T04:18:01.771Z,8.30
2022-08-16T04:20:37.017Z,8.15
2022-08-16T04:23:11.082Z,8.75
2022-08-16T04:25:47.060Z,7.60
2022-08-16T04:28:54.593Z,6.90
2022-08-16T04:30:55.171Z,6.72
2022-08-16T04:33:28.501Z,6.60
2022-08-16T04:36:03.048Z,6.75
2022-08-16T04:38:37.958Z,6.00
2022-08-16T04:41:10.982Z,7.92
2022-08-16T04:43:46.374Z,7.45
2022-08-16T04:47:01.186Z,7.60
2022-08-16T04:48:57.259Z,8.25
2022-08-16T04:51:36.076Z,9.33
2022-08-16T04:54:05.833Z,8.65
2022-08-16T04:56:42.737Z,7.08
2022-08-16T04:59:14.707Z,6.33
2022-08-16T05:01:57.927Z,5.67
2022-08-16T05:04:25.992Z,5.72
2022-08-16T05:07:01.192Z,4.65
2022-08-16T05:09:38.938Z,4.72
2022-08-16T05:12:13.530Z,4.42
2022-08-16T05:15:02.438Z,4.03
2022-08-16T05:17:24.816Z,4.28
2022-08-16T05:20:00.418Z,4.37
2022-08-16T05:22:36.688Z,5.15
2022-08-16T05:25:12.550Z,4.20
2022-08-16T05:27:47.159Z,3.85
2022-08-16T05:30:35.661Z,4.40
2022-08-16T05:32:57.075Z,5.10
2022-08-16T05:35:31.558Z,5.62
2022-08-16T05:38:30.948Z,6.42
2022-08-16T05:40:41.985Z,6.15
2022-08-16T05:43:17.588Z,5.90
2022-08-16T05:45:52.144Z,5.70
2022-08-16T05:48:26.867Z,5.25
2022-08-16T05:51:02.220Z,5.20
2022-08-16T05:53:36.403Z,5.95
2022-08-16T05:56:13.120Z,6.15
2022-08-16T05:58:49.217Z,6.08
2022-08-16T06:01:24.622Z,6.65
2022-08-16T06:03:57.986Z,8.20
2022-08-16T06:06:36.965Z,9.28
2022-08-16T06:09:13.291Z,9.05
2022-08-16T06:11:47.463Z,8.25
2022-08-16T06:14:21.997Z,9.05
2022-08-16T06:16:55.413Z,7.28
2022-08-16T06:19:28.668Z,5.87
2022-08-16T06:22:04.953Z,6.10
2022-08-16T06:24:54.217Z,5.57
2022-08-16T06:27:13.416Z,5.15
2022-08-16T06:29:50.244Z,5.20
2022-08-16T06:32:27.618Z,6.12
2022-08-16T06:35:02.813Z,6.12
2022-08-16T06:37:37.327Z,5.72
2022-08-16T06:40:12.982Z,5.47
2022-08-16T06:42:50.231Z,5.87
2022-08-16T06:45:19.319Z,6.40
2022-08-16T06:47:56.829Z,4.95
2022-08-16T06:50:32.764Z,5.90
2022-08-16T06:53:09.600Z,5.55
2022-08-16T06:55:45.104Z,5.12
2022-08-16T06:58:21.931Z,5.30
2022-08-16T07:00:54.228Z,5.37
2022-08-16T07:03:32.523Z,4.92
2022-08-16T07:06:03.727Z,4.80
2022-08-16T07:08:38.478Z,4.90
2022-08-16T07:11:12.528Z,4.95
2022-08-16T07:14:00.233Z,4.92
2022-08-16T07:16:27.768Z,5.40
2022-08-16T07:19:01.906Z,5.72
2022-08-16T07:21:46.580Z,5.42
2022-08-16T07:24:30.844Z,5.25
2022-08-16T07:26:49.043Z,5.47
2022-08-16T07:29:22.277Z,5.35
2022-08-16T07:31:55.750Z,5.25
2022-08-16T07:34:35.043Z,6.05
2022-08-16T07:37:09.665Z,5.10
2022-08-16T07:39:47.714Z,5.05
2022-08-16T07:42:28.438Z,6.37
2022-08-16T07:44:58.429Z,5.97
2022-08-16T07:47:32.149Z,6.72
2022-08-16T07:50:07.457Z,5.50
2022-08-16T07:52:40.500Z,6.62
2022-08-16T07:55:16.671Z,7.50
2022-08-16T07:58:00.728Z,6.37
2022-08-16T08:00:26.574Z,7.42
2022-08-16T08:03:00.871Z,7.10
2022-08-16T08:05:36.999Z,9.35
2022-08-16T08:08:11.824Z,8.03
2022-08-16T08:10:47.083Z,6.58
2022-08-16T08:13:31.027Z,7.03
2022-08-16T08:15:55.558Z,8.10
2022-08-16T08:18:31.080Z,7.90
2022-08-16T08:21:06.356Z,9.13
2022-08-16T08:23:42.520Z,8.15
2022-08-16T08:26:17.767Z,7.08
2022-08-16T08:28:49.055Z,8.18
2022-08-16T08:31:22.983Z,7.55
2022-08-16T08:33:57.294Z,6.97
2022-08-16T08:36:34.251Z,6.08
2022-08-16T08:39:12.753Z,7.22
2022-08-16T08:41:49.269Z,5.80
2022-08-16T08:44:29.883Z,5.65
2022-08-16T08:47:00.176Z,7.53
2022-08-16T08:49:50.494Z,8.65
2022-08-16T08:52:11.773Z,7.30
2022-08-16T08:54:47.826Z,6.87
2022-08-16T08:57:24.156Z,6.25
2022-08-16T09:00:01.999Z,7.37
2022-08-16T09:02:37.766Z,7.10
2022-08-16T09:05:15.038Z,7.13
2022-08-16T09:07:54.634Z,5.92
2022-08-16T09:10:25.034Z,5.75
2022-08-16T09:13:01.018Z,6.30
2022-08-16T09:15:35.537Z,5.92
2022-08-16T09:18:35.402Z,5.53
2022-08-16T09:20:58.915Z,5.20
2022-08-16T09:23:21.619Z,5.30
2022-08-16T09:25:56.669Z,5.22
2022-08-16T09:28:38.087Z,4.78
2022-08-16T09:31:07.738Z,5.97
2022-08-16T09:33:43.680Z,4.62
2022-08-16T09:38:50.747Z,4.37
2022-08-16T09:41:23.771Z,4.40
2022-08-16T09:44:00.843Z,4.55
2022-08-16T09:46:49.156Z,4.55
2022-08-16T09:49:08.508Z,4.67
2022-08-16T09:54:16.678Z,4.65
2022-08-16T09:56:52.151Z,4.78
2022-08-16T09:59:30.592Z,5.60
2022-08-16T10:02:26.543Z,4.62
2022-08-16T10:04:53.043Z,5.08
2022-08-16T10:07:11.901Z,4.87
2022-08-16T10:09:54.670Z,5.15
2022-08-16T10:12:42.582Z,6.12
2022-08-16T10:15:18.046Z,5.78
2022-08-16T10:18:01.119Z,4.45
2022-08-16T10:20:35.173Z,5.22
2022-08-16T10:23:16.918Z,6.03
2022-08-16T10:27:16.547Z,6.25
2022-08-16T10:28:29.094Z,5.97
2022-08-16T10:30:58.832Z,5.62
2022-08-16T10:33:34.373Z,5.72
2022-08-16T10:36:10.217Z,6.37
2022-08-16T10:38:44.967Z,6.15
2022-08-16T10:41:21.043Z,5.83
2022-08-16T10:43:54.230Z,6.58
2022-08-16T10:46:39.170Z,6.65
2022-08-16T10:49:05.120Z,7.60
2022-08-16T10:52:01.433Z,6.65
2022-08-16T10:54:29.657Z,5.53
2022-08-16T10:56:51.827Z,6.12
2022-08-16T10:59:38.192Z,5.42
2022-08-16T11:07:43.552Z,4.65
2022-08-16T11:09:44.307Z,5.05
2022-08-16T11:12:18.756Z,5.40
2022-08-16T11:17:26.831Z,5.12
2022-08-16T11:20:00.878Z,4.97
2022-08-16T11:22:46.967Z,5.15
2022-08-16T11:25:17.493Z,6.30
2022-08-16T11:27:45.026Z,6.03
2022-08-16T11:30:19.956Z,6.00
2022-08-16T11:32:53.559Z,6.55
2022-08-16T11:36:22.366Z,6.22
2022-08-16T11:38:46.798Z,6.92
2022-08-16T11:40:57.126Z,7.72
2022-08-16T11:43:34.921Z,6.17
2022-08-16T11:46:43.124Z,6.45
2022-08-16T11:48:46.966Z,6.50
2022-08-16T11:51:19.975Z,6.40
2022-08-16T11:53:53.241Z,5.83
2022-08-16T11:56:29.906Z,5.30
2022-08-16T11:59:02.032Z,5.80
2022-08-16T12:01:55.311Z,5.72
2022-08-16T12:04:09.809Z,6.50
2022-08-16T12:06:44.225Z,7.37
2022-08-16T12:09:18.127Z,7.35
2022-08-16T12:11:53.579Z,7.17
2022-08-16T12:14:26.868Z,6.87
2022-08-16T12:17:03.357Z,6.35
2022-08-16T12:19:36.757Z,6.90
2022-08-16T12:22:18.571Z,6.50
2022-08-16T12:24:51.006Z,5.60
2022-08-16T12:27:24.382Z,5.78
2022-08-16T12:29:58.354Z,5.15
2022-08-16T12:32:39.250Z,5.72
2022-08-16T12:35:08.383Z,5.80
2022-08-16T12:37:43.526Z,6.00
2022-08-16T12:40:24.947Z,5.20
2022-08-16T12:43:00.793Z,6.42
2022-08-16T12:45:38.086Z,5.75
2022-08-16T12:48:33.905Z,5.83
2022-08-16T12:51:13.618Z,6.58
2022-08-16T12:53:43.829Z,6.10
2022-08-16T12:56:17.290Z,5.83
2022-08-16T12:58:52.192Z,5.80
2022-08-16T13:01:32.024Z,6.33
2022-08-16T13:04:19.651Z,6.70
2022-08-16T13:06:42.739Z,6.45
2022-08-16T13:09:23.459Z,5.78
2022-08-16T13:12:05.752Z,6.15
2022-08-16T13:14:43.835Z,8.03
2022-08-16T13:17:26.255Z,6.67
2022-08-16T13:20:10.964Z,6.15
2022-08-16T13:25:21.565Z,6.47
2022-08-16T13:28:14.698Z,6.30
2022-08-16T13:30:36.063Z,6.53
2022-08-16T13:33:11.334Z,5.72
2022-08-16T13:35:55.710Z,6.37
2022-08-16T13:38:25.132Z,6.87
2022-08-16T13:40:58.570Z,8.00
2022-08-16T13:43:32.939Z,6.15
2022-08-16T13:46:06.880Z,6.17
2022-08-16T13:48:44.533Z,6.72
2022-08-16T13:51:18.675Z,7.67
2022-08-16T13:54:02.606Z,6.65
2022-08-16T13:56:34.543Z,6.95
2022-08-16T13:59:06.192Z,6.90
2022-08-16T14:01:40.702Z,9.23
2022-08-16T14:04:23.286Z,9.28
2022-08-16T14:06:49.189Z,15.15
2022-08-16T14:09:22.371Z,11.85
2022-08-16T14:11:55.263Z,8.73
2022-08-16T14:14:30.057Z,7.47
2022-08-16T14:17:04.227Z,7.72
2022-08-16T14:19:37.187Z,8.15
2022-08-16T14:22:30.417Z,8.75
2022-08-16T14:24:51.637Z,7.22
2022-08-16T14:27:28.529Z,8.15
2022-08-16T14:30:02.516Z,7.50
2022-08-16T14:35:12.478Z,8.10
2022-08-16T14:37:45.816Z,7.15
2022-08-16T14:40:23.145Z,7.78
2022-08-16T14:42:57.741Z,6.83
2022-08-16T14:45:32.369Z,6.95
2022-08-16T14:48:06.319Z,6.60
2022-08-16T14:50:39.258Z,9.28
2022-08-16T14:55:46.474Z,14.40
2022-08-16T14:58:34.995Z,7.95
2022-08-16T15:00:57.671Z,8.48
2022-08-16T15:03:32.916Z,8.23
2022-08-16T15:06:05.884Z,8.38
2022-08-16T15:11:13.478Z,7.60
2022-08-16T15:13:46.338Z,9.30
2022-08-16T15:16:27.684Z,8.10
2022-08-16T15:18:55.438Z,9.35
2022-08-16T15:21:29.634Z,14.87
2022-08-16T15:24:03.378Z,10.68
2022-08-16T15:26:45.353Z,9.60
2022-08-16T15:29:12.847Z,9.88
2022-08-16T15:31:48.505Z,9.30
2022-08-16T15:34:26.030Z,9.30
2022-08-16T15:36:57.470Z,10.18
2022-08-16T15:39:39.290Z,10.05
2022-08-16T15:42:11.057Z,9.73
2022-08-16T15:44:52.145Z,10.70
2022-08-16T15:47:19.983Z,11.30
2022-08-16T15:49:55.505Z,12.43
2022-08-16T15:52:37.428Z,12.95
2022-08-16T15:55:23.977Z,20.10
2022-08-16T15:57:46.806Z,13.28
2022-08-16T16:00:21.014Z,13.83
2022-08-16T16:03:08.941Z,15.08
2022-08-16T16:05:46.424Z,11.85
2022-08-16T16:08:24.057Z,11.40
2022-08-16T16:11:00.384Z,12.05
2022-08-16T16:13:36.462Z,11.50
2022-08-16T16:16:13.276Z,12.23
2022-08-16T16:18:49.031Z,11.03
2022-08-16T16:21:21.596Z,11.83
2022-08-16T16:23:59.010Z,13.83
2022-08-16T16:26:30.543Z,12.47
2022-08-16T16:29:08.784Z,10.63
2022-08-16T16:31:41.216Z,11.43
2022-08-16T16:34:16.030Z,11.12
2022-08-16T16:36:48.893Z,14.50
2022-08-16T16:39:22.614Z,14.13
2022-08-16T16:41:55.469Z,14.73
2022-08-16T16:44:31.982Z,11.95
2022-08-16T16:47:04.639Z,12.45
2022-08-16T16:49:41.665Z,12.07
2022-08-16T16:52:14.070Z,12.30
2022-08-16T16:54:49.401Z,12.28
2022-08-16T17:00:30.365Z,10.88
2022-08-16T17:02:53.693Z,12.00
2022-08-16T17:05:32.450Z,11.70
2022-08-16T17:08:07.036Z,11.50
2022-08-16T17:10:46.139Z,12.18
2022-08-16T17:13:15.790Z,14.15
2022-08-16T17:15:52.124Z,13.50
2022-08-16T17:19:15.381Z,14.93
2022-08-16T17:20:58.894Z,16.60
2022-08-16T17:23:58.722Z,28.20
2022-08-16T17:26:10.503Z,33.30
2022-08-16T17:28:58.629Z,15.50
2022-08-16T17:31:17.182Z,12.88
2022-08-16T17:33:54.421Z,12.20
2022-08-16T17:36:36.516Z,13.48
2022-08-16T17:39:02.081Z,13.03
2022-08-16T17:41:36.750Z,11.88
2022-08-16T17:44:10.767Z,11.70
2022-08-16T17:46:52.450Z,12.10
2022-08-16T17:49:18.720Z,11.25
2022-08-16T17:51:51.630Z,11.88
2022-08-16T17:54:30.769Z,11.50
2022-08-16T17:57:01.238Z,11.53
2022-08-16T17:59:35.526Z,11.63
2022-08-16T18:02:15.410Z,10.28
2022-08-16T18:04:48.281Z,11.00
2022-08-16T18:07:18.301Z,13.40
2022-08-16T18:09:52.407Z,11.60
2022-08-16T18:12:44.489Z,10.40
2022-08-16T18:15:06.751Z,10.40
2022-08-16T18:17:40.024Z,12.35
2022-08-16T18:20:16.752Z,10.48
2022-08-16T18:22:50.240Z,11.40
2022-08-16T18:25:23.191Z,10.45
2022-08-16T18:27:56.444Z,9.93
2022-08-16T18:30:29.465Z,10.90
2022-08-16T18:33:02.297Z,11.45
2022-08-16T18:35:36.558Z,12.18
2022-08-16T18:38:09.442Z,10.88
2022-08-16T18:40:43.551Z,10.70
2022-08-16T18:43:20.075Z,10.35
2022-08-16T18:45:56.495Z,9.73
2022-08-16T18:48:29.840Z,10.68
2022-08-16T18:51:09.250Z,11.38
2022-08-16T18:53:38.756Z,9.35
2022-08-16T18:56:12.125Z,10.48
2022-08-16T18:58:44.920Z,9.70
2022-08-16T19:01:17.905Z,9.78
2022-08-16T19:03:51.721Z,8.63
2022-08-16T19:06:24.428Z,9.08
2022-08-16T19:08:57.233Z,8.53
2022-08-16T19:11:30.362Z,9.20
2022-08-16T19:14:03.377Z,8.20
2022-08-16T19:16:36.213Z,8.45
2022-08-16T19:19:09.275Z,8.78
2022-08-16T19:21:42.109Z,8.00
2022-08-16T19:24:17.940Z,8.68
2022-08-16T19:26:49.587Z,8.65
2022-08-16T19:29:23.375Z,8.98
2022-08-16T19:31:56.208Z,9.63
2022-08-16T19:34:29.484Z,8.90
2022-08-16T19:37:02.390Z,7.97
2022-08-16T19:39:36.855Z,8.08
2022-08-16T19:42:20.114Z,8.80
2022-08-16T19:44:57.121Z,8.25
2022-08-16T19:47:30.230Z,8.03
2022-08-16T19:50:03.118Z,8.57
2022-08-16T19:52:37.465Z,7.87
2022-08-16T19:55:13.591Z,8.85
2022-08-16T19:57:47.966Z,8.50
2022-08-16T20:00:21.411Z,9.00
2022-08-16T20:02:55.716Z,9.58
2022-08-16T20:05:35.402Z,8.78
2022-08-16T20:08:08.342Z,9.48
2022-08-16T20:13:22.196Z,9.23
2022-08-16T20:15:55.034Z,9.48
2022-08-16T20:18:27.971Z,10.32
2022-08-16T20:21:00.925Z,9.48
2022-08-16T20:23:34.213Z,10.50
2022-08-16T20:26:07.200Z,10.28
2022-08-16T20:28:53.600Z,10.90
2022-08-16T20:31:16.170Z,10.80
2022-08-16T20:33:49.210Z,10.88
2022-08-16T20:36:22.432Z,10.60
2022-08-16T20:38:56.999Z,11.22
2022-08-16T20:41:30.185Z,11.83
2022-08-16T20:44:03.109Z,11.85
2022-08-16T20:46:39.674Z,11.28
2022-08-16T20:49:11.506Z,11.78
2022-08-16T20:51:49.477Z,11.85
2022-08-16T20:54:19.007Z,11.73
2022-08-16T20:56:52.319Z,11.80
2022-08-16T20:59:25.553Z,12.23
2022-08-16T21:01:59.498Z,10.78
2022-08-16T21:04:32.605Z,11.60
2022-08-16T21:07:05.677Z,11.48
2022-08-16T21:09:39.476Z,11.40
2022-08-16T21:12:15.433Z,11.20
2022-08-16T21:14:50.645Z,10.72
2022-08-16T21:17:23.587Z,12.07
2022-08-16T21:19:56.816Z,11.20
2022-08-16T21:22:29.803Z,11.68
2022-08-16T21:25:02.573Z,11.50
2022-08-16T21:27:44.496Z,12.18
2022-08-16T21:30:11.501Z,12.05
2022-08-16T21:32:44.409Z,11.97
2022-08-16T21:35:19.583Z,12.05
2022-08-16T21:38:03.109Z,12.33
2022-08-16T21:40:32.102Z,11.43
2022-08-16T21:43:11.319Z,11.33
2022-08-16T21:45:46.991Z,11.93
2022-08-16T21:48:33.943Z,12.33
2022-08-16T21:50:54.555Z,12.53
2022-08-16T21:53:27.781Z,13.93
2022-08-16T21:56:02.391Z,13.00
2022-08-16T21:58:35.785Z,12.58
2022-08-16T22:01:08.901Z,12.43
2022-08-16T22:06:15.458Z,11.12
2022-08-16T22:08:51.116Z,12.28
2022-08-16T22:11:26.061Z,12.13
2022-08-16T22:13:59.575Z,11.85
2022-08-16T22:16:37.144Z,12.90
2022-08-16T22:19:11.897Z,12.05
2022-08-16T22:21:45.742Z,12.18
2022-08-16T22:24:18.720Z,11.90
2022-08-16T22:26:51.805Z,11.88
2022-08-16T22:29:25.018Z,11.70
2022-08-16T22:31:57.863Z,11.80
2022-08-16T22:34:32.553Z,11.85
2022-08-16T22:39:38.248Z,11.63
2022-08-16T22:42:11.660Z,12.58
2022-08-16T22:44:46.496Z,11.60
2022-08-16T22:47:19.633Z,12.98
2022-08-16T22:49:54.165Z,11.95
2022-08-16T22:52:58.167Z,12.37
2022-08-16T22:55:03.652Z,11.30
2022-08-16T22:57:37.020Z,11.83
2022-08-16T23:00:13.953Z,12.25
2022-08-16T23:03:06.235Z,12.10
2022-08-16T23:05:43.337Z,13.20
2022-08-16T23:08:32.255Z,13.00
2022-08-16T23:10:54.274Z,12.60
2022-08-16T23:13:28.272Z,13.53
2022-08-16T23:18:37.880Z,13.38
2022-08-16T23:21:12.452Z,12.60
2022-08-16T23:23:46.873Z,13.10
2022-08-16T23:26:46.918Z,13.58
2022-08-16T23:28:55.898Z,13.35
2022-08-16T23:31:28.780Z,13.80
2022-08-16T23:34:02.351Z,13.62
2022-08-16T23:36:35.502Z,12.45
2022-08-16T23:39:08.412Z,13.10
2022-08-16T23:41:41.807Z,12.05
2022-08-16T23:44:44.233Z,12.50
2022-08-16T23:46:50.061Z,12.70
2022-08-16T23:51:56.660Z,13.08
2022-08-16T23:54:30.293Z,12.53
2022-08-16T23:57:03.599Z,12.60
2022-08-16T23:59:48.692Z,12.73
